Time;durP1;ratioP1;P1;durP2;ratioP2;P2;SDS_P1;SDS_P2;PMS_P1;PMS_P2;Temp;Humidity;BMP_temperature;BMP_pressure;BME280_temperature;BME280_humidity;BME280_pressure;Samples;Min_cycle;Max_cycle;Signal;HPM_P1;HPM_P2
2023/08/24 00:02:01;;;;;;;8.05;4.47;;;;;;;26.19;44.11;99799.16;10405120;28;20326;-64
2023/08/24 00:07:03;;;;;;;9.88;5.07;;;;;;;27.52;41.68;99771.19;10406638;28;20239;-64
2023/08/24 00:12:06;;;;;;;5.47;4.65;;;;;;;25.54;44.48;99832.25;10410828;28;20231;-64
2023/08/24 00:17:08;;;;;;;7.00;4.65;;;;;;;24.35;46.27;99832.69;10411129;28;20232;-64
2023/08/24 00:22:09;;;;;;;8.13;4.90;;;;;;;26.67;43.02;99762.69;10412693;28;20227;-64
2023/08/24 00:27:13;;;;;;;6.63;4.72;;;;;;;25.06;45.50;99789.81;10412414;28;20244;-64
2023/08/24 00:32:17;;;;;;;4.50;4.10;;;;;;;27.99;40.98;99750.06;10415076;28;20740;-64
2023/08/24 00:37:19;;;;;;;7.35;4.57;;;;;;;27.20;41.74;99775.47;10416216;28;20347;-64
2023/08/24 00:42:22;;;;;;;7.68;5.50;;;;;;;27.84;40.91;99751.16;10408751;28;20367;-64
2023/08/24 00:47:24;;;;;;;5.63;4.55;;;;;;;24.70;46.10;99800.94;10411717;28;20243;-65
2023/08/24 00:52:28;;;;;;;8.38;4.80;;;;;;;24.60;46.13;99768.09;10412971;28;20225;-64
2023/08/24 00:57:31;;;;;;;7.28;5.60;;;;;;;22.24;50.01;99823.03;10411082;28;20262;-64
2023/08/24 01:02:36;;;;;;;8.00;5.90;;;;;;;21.21;52.48;99822.03;10415300;28;20313;-66
2023/08/24 01:07:39;;;;;;;6.93;5.63;;;;;;;21.81;51.24;99797.59;10417563;28;20232;-66
2023/08/24 01:12:44;;;;;;;6.70;5.45;;;;;;;22.94;49.22;99797.50;10411109;28;20750;-66
2023/08/24 01:17:47;;;;;;;6.07;5.07;;;;;;;23.62;46.68;99822.84;10413808;28;20275;-67
2023/08/24 01:23:09;;;;;;;6.47;4.88;;;;;;;23.23;47.32;99842.41;10406645;28;20267;-64
2023/08/24 01:28:12;;;;;;;6.15;5.00;;;;;;;22.95;47.53;99846.34;10409809;28;20382;-66
2023/08/24 01:33:14;;;;;;;6.90;4.78;;;;;;;23.85;46.81;99787.09;10413591;28;20239;-65
2023/08/24 01:38:16;;;;;;;5.82;4.88;;;;;;;24.11;46.38;99807.03;10411338;28;20250;-66
2023/08/24 01:43:21;;;;;;;6.50;4.53;;;;;;;24.04;46.02;99803.72;10406265;28;20312;-66
2023/08/24 01:48:38;;;;;;;6.40;4.97;;;;;;;23.33;47.40;99827.13;10412257;28;20610;-65
2023/08/24 01:53:41;;;;;;;5.65;4.65;;;;;;;23.05;47.29;99830.03;10414479;28;20234;-66
2023/08/24 01:58:43;;;;;;;5.90;4.40;;;;;;;23.68;47.21;99787.34;10407793;28;20797;-64
2023/08/24 02:03:45;;;;;;;6.20;4.22;;;;;;;24.10;45.44;99810.84;10404153;28;21030;-66
2023/08/24 02:08:47;;;;;;;4.82;4.32;;;;;;;22.39;48.06;99855.03;10408751;28;20236;-65
2023/08/24 02:13:49;;;;;;;5.60;4.00;;;;;;;21.85;49.36;99836.84;10408719;28;20328;-66
2023/08/24 02:18:51;;;;;;;4.70;4.20;;;;;;;22.12;49.10;99817.75;10409099;28;20648;-66
2023/08/24 02:23:52;;;;;;;4.57;4.03;;;;;;;21.86;48.93;99832.22;10411517;28;20350;-65
2023/08/24 02:28:54;;;;;;;7.65;4.25;;;;;;;22.42;48.02;99823.66;10411564;28;20707;-66
2023/08/24 02:33:56;;;;;;;5.90;4.72;;;;;;;21.90;49.00;99822.47;10405789;28;20243;-65
2023/08/24 02:38:58;;;;;;;4.32;3.90;;;;;;;21.74;49.34;99803.25;10411772;28;20235;-65
2023/08/24 02:44:00;;;;;;;4.65;4.00;;;;;;;23.59;46.19;99716.84;10407912;28;20765;-65
2023/08/24 02:49:01;;;;;;;6.00;4.40;;;;;;;22.97;46.58;99775.16;10407993;28;20805;-66
2023/08/24 02:54:03;;;;;;;4.38;3.47;;;;;;;23.71;45.85;99735.72;10402529;28;20315;-65
2023/08/24 02:59:05;;;;;;;4.32;3.92;;;;;;;22.78;46.58;99775.63;10402142;28;20242;-66
2023/08/24 03:04:06;;;;;;;6.22;4.18;;;;;;;23.71;45.68;99719.34;10404601;28;20253;-66
2023/08/24 03:09:08;;;;;;;6.35;4.28;;;;;;;21.74;48.67;99761.59;10423379;28;20257;-66
2023/08/24 03:14:10;;;;;;;5.40;4.30;;;;;;;22.07;48.54;99736.00;10401091;28;20757;-66
2023/08/24 03:19:14;;;;;;;4.95;4.15;;;;;;;22.45;47.29;99725.81;10411220;28;20246;-66
2023/08/24 03:24:16;;;;;;;7.47;4.15;;;;;;;21.54;49.91;99716.78;10392269;28;20771;-66
2023/08/24 03:29:17;;;;;;;5.88;4.65;;;;;;;23.58;46.05;99662.50;10401273;28;20879;-65
2023/08/24 03:34:20;;;;;;;5.57;4.47;;;;;;;22.82;46.72;99702.28;10403472;28;20233;-65
2023/08/24 03:39:22;;;;;;;6.20;4.18;;;;;;;23.79;45.64;99646.97;10396625;28;20239;-68
2023/08/24 03:44:24;;;;;;;7.20;4.28;;;;;;;23.86;45.66;99633.81;10403752;28;20231;-69
2023/08/24 03:49:26;;;;;;;5.25;4.18;;;;;;;22.13;48.25;99680.44;10414416;28;20308;-70
2023/08/24 03:54:28;;;;;;;6.65;4.20;;;;;;;23.52;46.19;99614.47;10410357;28;20616;-69
2023/08/24 03:59:29;;;;;;;7.55;4.32;;;;;;;22.77;47.18;99662.16;10413913;28;20235;-68
2023/08/24 04:04:31;;;;;;;7.97;4.15;;;;;;;22.61;47.89;99627.78;10418410;28;20240;-69
2023/08/24 04:09:33;;;;;;;5.15;4.28;;;;;;;20.43;52.43;99650.03;10416392;28;20748;-68
2023/08/24 04:14:34;;;;;;;6.53;4.45;;;;;;;20.99;50.59;99639.81;10411120;28;20243;-68
2023/08/24 04:19:38;;;;;;;7.05;4.35;;;;;;;20.25;52.28;99654.72;10409238;28;20740;-68
2023/08/24 04:24:40;;;;;;;7.10;4.47;;;;;;;21.92;47.96;99629.63;10415576;28;20247;-69
2023/08/24 04:29:41;;;;;;;7.15;4.53;;;;;;;21.90;48.56;99616.28;10411312;28;20230;-69
2023/08/24 04:34:43;;;;;;;5.30;4.05;;;;;;;21.72;48.60;99674.72;10411026;28;20263;-69
2023/08/24 04:39:44;;;;;;;8.05;4.40;;;;;;;22.39;47.86;99612.41;10408431;28;20227;-69
2023/08/24 04:44:46;;;;;;;5.72;4.50;;;;;;;21.71;48.71;99634.97;10413771;28;20232;-69
2023/08/24 04:49:48;;;;;;;5.38;4.20;;;;;;;21.59;49.28;99656.94;10409110;28;20331;-69
2023/08/24 04:54:49;;;;;;;4.85;4.38;;;;;;;22.26;47.86;99626.53;10414437;28;20718;-69
2023/08/24 05:05:20;;;;;;;5.53;4.65;;;;;;;19.32;54.41;99546.72;10497314;27;20873;-69
2023/08/24 05:10:21;;;;;;;5.07;4.55;;;;;;;18.95;55.48;99530.97;10410834;28;20211;-69
2023/08/24 05:15:23;;;;;;;5.20;4.70;;;;;;;19.47;53.94;99562.41;10415299;28;20232;-69
2023/08/24 05:20:28;;;;;;;5.18;4.50;;;;;;;19.65;53.94;99536.06;10410841;28;20464;-69
2023/08/24 05:25:30;;;;;;;4.70;4.30;;;;;;;19.45;54.35;99575.41;10414616;28;20711;-66
2023/08/24 05:30:31;;;;;;;6.60;4.15;;;;;;;20.06;53.13;99556.41;10413436;28;20219;-66
2023/08/24 05:35:33;;;;;;;4.90;4.40;;;;;;;19.30;54.65;99605.81;10416859;28;20228;-65
2023/08/24 05:40:35;;;;;;;8.82;4.95;;;;;;;18.89;55.66;99634.09;10427784;28;20216;-66
2023/08/24 05:45:39;;;;;;;5.82;4.55;;;;;;;19.08;55.40;99643.72;10451218;28;20240;-66
2023/08/24 05:50:45;;;;;;;6.50;4.88;;;;;;;19.28;54.67;99659.50;10415057;28;20228;-65
2023/08/24 05:55:47;;;;;;;6.00;4.37;;;;;;;20.35;52.28;99617.91;10413006;28;20323;-66
2023/08/24 06:00:56;;;;;;;7.68;4.03;;;;;;;19.75;52.42;99710.78;10423515;28;20926;-65
2023/08/24 06:06:04;;;;;;;6.20;3.88;;;;;;;20.95;50.30;99638.69;10449912;28;20263;-66
2023/08/24 06:11:06;;;;;;;6.07;3.72;;;;;;;20.43;50.35;99742.44;10410380;28;20251;-64
2023/08/24 06:16:08;;;;;;;4.40;3.40;;;;;;;19.87;51.24;99785.88;10387082;28;20255;-65
2023/08/24 06:21:09;;;;;;;4.97;3.45;;;;;;;22.34;47.42;99675.09;10387345;28;20232;-66
2023/08/24 06:26:11;;;;;;;5.40;3.60;;;;;;;21.15;49.29;99727.81;10395985;28;20758;-64
2023/08/24 06:31:14;;;;;;;5.82;3.30;;;;;;;21.12;49.14;99730.22;10420006;28;20232;-66
2023/08/24 06:36:16;;;;;;;4.38;3.22;;;;;;;20.48;49.39;99777.84;10381713;28;20247;-66
2023/08/24 06:41:19;;;;;;;3.72;3.28;;;;;;;21.14;48.98;99758.00;10386056;28;20237;-66
2023/08/24 06:46:22;;;;;;;5.15;3.10;;;;;;;21.53;47.72;99747.00;10381966;28;20232;-66
2023/08/24 06:51:25;;;;;;;3.35;2.97;;;;;;;21.34;49.09;99722.84;10385574;28;20612;-66
2023/08/24 06:56:26;;;;;;;7.80;3.33;;;;;;;21.20;48.01;99767.84;10382235;28;20239;-66
2023/08/24 07:01:28;;;;;;;3.97;3.35;;;;;;;21.72;47.88;99722.91;10380913;28;20250;-66
2023/08/24 07:06:30;;;;;;;5.20;2.95;;;;;;;20.99;48.24;99770.38;10381900;28;21542;-66
2023/08/24 07:11:31;;;;;;;5.00;2.90;;;;;;;21.65;47.23;99744.91;10379927;28;20595;-66
2023/08/24 07:16:33;;;;;;;4.32;2.90;;;;;;;22.79;45.51;99687.28;10380096;28;20271;-66
2023/08/24 07:21:34;;;;;;;3.80;2.78;;;;;;;22.48;46.17;99721.75;10379987;28;20247;-66
2023/08/24 07:26:36;;;;;;;6.50;2.85;;;;;;;22.87;45.92;99749.47;10381996;28;20233;-66
2023/08/24 07:31:38;;;;;;;3.83;2.72;;;;;;;22.65;45.92;99697.03;10382446;28;20229;-66
2023/08/24 07:36:40;;;;;;;4.93;3.13;;;;;;;23.26;45.59;99686.28;10383733;28;20241;-66
2023/08/24 07:41:42;;;;;;;5.60;3.13;;;;;;;23.55;45.14;99707.59;10378335;28;20618;-65
2023/08/24 07:46:44;;;;;;;3.97;2.88;;;;;;;23.39;45.01;99701.28;10377340;28;20603;-65
2023/08/24 07:51:47;;;;;;;3.92;2.80;;;;;;;23.81;44.46;99693.94;10382625;28;20220;-66
2023/08/24 07:56:49;;;;;;;3.58;2.60;;;;;;;24.86;43.59;99691.41;10378914;28;20746;-65
2023/08/24 08:01:50;;;;;;;4.50;2.85;;;;;;;22.95;45.57;99764.50;10377303;28;20723;-65
2023/08/24 08:06:53;;;;;;;4.07;3.08;;;;;;;24.65;43.69;99707.91;10385792;28;20241;-65
2023/08/24 08:11:54;;;;;;;3.85;3.00;;;;;;;23.90;43.92;99716.84;10375395;28;20461;-66
2023/08/24 08:16:56;;;;;;;3.25;2.83;;;;;;;23.98;44.04;99696.34;10381305;28;20240;-66
2023/08/24 08:21:58;;;;;;;4.82;2.90;;;;;;;24.90;43.19;99676.88;10378956;28;20244;-66
2023/08/24 08:27:00;;;;;;;4.82;2.90;;;;;;;24.30;43.87;99701.47;10376579;28;20240;-66
2023/08/24 08:32:02;;;;;;;5.18;2.78;;;;;;;25.06;43.67;99676.78;10383814;28;20906;-66
2023/08/24 08:37:06;;;;;;;4.10;3.17;;;;;;;24.52;43.32;99678.44;10351726;28;20258;-65
2023/08/24 08:42:14;;;;;;;5.20;2.92;;;;;;;24.76;43.85;99647.69;10378216;28;20614;-66
2023/08/24 08:47:17;;;;;;;5.63;3.05;;;;;;;24.89;43.78;99604.09;10366834;28;20273;-66
2023/08/24 08:52:19;;;;;;;6.25;3.35;;;;;;;25.70;42.34;99581.72;10353485;28;20234;-65
2023/08/24 08:57:23;;;;;;;10.77;3.28;;;;;;;24.78;43.40;99626.34;10364072;28;20322;-65
2023/08/24 09:02:25;;;;;;;5.30;2.80;;;;;;;24.91;43.62;99618.28;10380318;28;20235;-65
2023/08/24 09:07:27;;;;;;;6.38;3.22;;;;;;;25.34;42.98;99636.88;10372691;28;20241;-65
2023/08/24 09:12:32;;;;;;;6.85;2.95;;;;;;;26.42;42.80;99560.84;10377769;28;20621;-67
2023/08/24 09:17:34;;;;;;;5.00;3.15;;;;;;;25.53;43.32;99593.16;10347514;28;20290;-66
2023/08/24 09:22:39;;;;;;;4.40;3.30;;;;;;;26.11;43.06;99564.81;10380470;28;20317;-66
2023/08/24 09:27:41;;;;;;;6.47;3.30;;;;;;;26.05;42.25;99598.91;10378211;28;24591;-66
2023/08/24 09:32:44;;;;;;;4.70;3.03;;;;;;;27.13;41.62;99526.78;10379591;28;20242;-66
2023/08/24 09:37:49;;;;;;;5.60;3.30;;;;;;;26.68;42.32;99534.66;10376494;28;20579;-66
2023/08/24 09:42:51;;;;;;;4.95;3.03;;;;;;;27.90;41.36;99496.19;10379687;28;20619;-66
2023/08/24 09:47:53;;;;;;;5.05;3.22;;;;;;;27.04;41.36;99549.72;10377804;28;20629;-66
2023/08/24 09:52:59;;;;;;;6.03;2.80;;;;;;;27.48;41.10;99521.75;10382950;28;20221;-66
2023/08/24 09:58:04;;;;;;;2.97;2.67;;;;;;;27.20;42.04;99534.63;10369054;28;20532;-65
2023/08/24 10:03:07;;;;;;;7.20;2.80;;;;;;;27.11;41.15;99498.00;10395948;28;20251;-66
2023/08/24 10:08:11;;;;;;;3.28;2.60;;;;;;;27.50;40.92;99488.50;10404615;28;20244;-65
2023/08/24 10:13:22;;;;;;;4.90;2.45;;;;;;;27.69;41.03;99477.38;10383047;28;20715;-65
2023/08/24 10:18:26;;;;;;;4.80;2.40;;;;;;;28.04;40.33;99473.03;10381718;28;20283;-66
2023/08/24 10:23:30;;;;;;;3.28;2.60;;;;;;;28.16;40.44;99434.00;10392496;28;20236;-66
2023/08/24 10:28:32;;;;;;;5.85;2.92;;;;;;;27.88;40.56;99443.47;10410730;28;20243;-66
2023/08/24 10:33:34;;;;;;;3.80;2.83;;;;;;;28.68;39.91;99444.59;10399228;28;20241;-66
2023/08/24 10:38:42;;;;;;;8.50;2.90;;;;;;;28.45;40.70;99420.94;10380924;28;20236;-66
2023/08/24 10:43:50;;;;;;;7.05;2.85;;;;;;;29.32;38.95;99426.91;10393271;28;20665;-66
2023/08/24 10:48:59;;;;;;;6.50;2.85;;;;;;;29.20;38.88;99418.44;10384886;28;20239;-66
2023/08/24 10:54:05;;;;;;;3.65;2.58;;;;;;;29.32;39.30;99394.66;10418376;28;25151;-66
2023/08/24 10:59:14;;;;;;;6.25;2.97;;;;;;;29.10;40.18;99401.06;10388006;28;20232;-66
2023/08/24 11:06:28;;;;;;;3.13;2.83;;;;;;;27.48;43.36;99348.69;10440837;27;20859;-66
2023/08/24 11:11:30;;;;;;;3.78;2.95;;;;;;;27.47;43.06;99369.00;10445763;28;20228;-66
2023/08/24 11:16:43;;;;;;;6.18;3.28;;;;;;;27.37;42.33;99384.91;10444731;28;20787;-67
2023/08/24 11:21:46;;;;;;;4.53;3.08;;;;;;;27.91;43.49;99377.66;10438155;28;20544;-67
2023/08/24 11:26:49;;;;;;;3.90;2.88;;;;;;;28.02;42.14;99379.06;10437772;28;20234;-67
2023/08/24 11:31:51;;;;;;;5.38;3.60;;;;;;;29.09;40.92;99358.09;10436328;28;20710;-68
2023/08/24 11:36:53;;;;;;;5.60;2.80;;;;;;;29.73;39.62;99359.53;10432435;28;20251;-67
2023/08/24 11:42:05;;;;;;;5.75;3.88;;;;;;;28.96;40.26;99368.13;10435892;28;20326;-67
2023/08/24 11:47:07;;;;;;;4.13;3.10;;;;;;;29.23;40.69;99335.97;10438147;28;20627;-67
2023/08/24 11:52:09;;;;;;;5.03;3.22;;;;;;;30.04;39.83;99340.09;10431793;28;20672;-67
2023/08/24 11:57:11;;;;;;;4.80;3.20;;;;;;;30.50;40.02;99306.53;10436933;28;20232;-67
2023/08/24 12:02:14;;;;;;;3.72;2.83;;;;;;;30.53;38.22;99314.16;10440618;28;20258;-67
2023/08/24 12:07:17;;;;;;;6.85;3.35;;;;;;;30.48;40.48;99317.88;10433299;28;20227;-67
2023/08/24 12:12:20;;;;;;;6.35;3.10;;;;;;;30.81;40.22;99289.66;10438221;28;20220;-67
2023/08/24 12:17:22;;;;;;;6.18;3.85;;;;;;;29.37;40.50;99327.56;10410011;28;20235;-68
2023/08/24 12:22:24;;;;;;;4.40;3.50;;;;;;;30.79;39.83;99280.91;10405753;28;20601;-67
2023/08/24 12:27:26;;;;;;;7.05;3.10;;;;;;;30.33;38.97;99301.84;10407278;28;20309;-68
2023/08/24 12:32:43;;;;;;;4.80;3.65;;;;;;;30.56;39.61;99319.00;10405816;28;20216;-67
2023/08/24 12:37:45;;;;;;;3.97;3.30;;;;;;;30.86;39.14;99297.75;10405312;28;20381;-67
2023/08/24 12:42:47;;;;;;;7.97;3.55;;;;;;;30.95;39.00;99283.91;10406992;28;20232;-67
2023/08/24 12:47:48;;;;;;;5.75;3.95;;;;;;;30.80;38.58;99279.75;10408149;28;20266;-68
2023/08/24 12:52:55;;;;;;;7.60;3.80;;;;;;;30.70;38.66;99283.72;10397738;28;20220;-66
2023/08/24 12:57:57;;;;;;;5.90;3.50;;;;;;;30.03;39.88;99301.78;10410640;28;20258;-66
2023/08/24 13:02:58;;;;;;;7.07;3.75;;;;;;;30.73;39.63;99268.41;10409140;28;20240;-66
2023/08/24 13:08:00;;;;;;;6.03;3.47;;;;;;;31.32;38.32;99245.44;10410456;28;20239;-66
2023/08/24 13:13:03;;;;;;;5.43;3.65;;;;;;;31.07;38.59;99237.00;10407892;28;20229;-66
2023/08/24 13:18:05;;;;;;;6.22;3.95;;;;;;;31.52;38.90;99227.25;10406718;28;20236;-68
2023/08/24 13:23:07;;;;;;;4.55;3.38;;;;;;;31.41;39.98;99214.97;10406068;28;20255;-66
2023/08/24 13:28:09;;;;;;;9.80;3.65;;;;;;;31.84;40.88;99197.16;10407051;28;20655;-67
2023/08/24 13:33:12;;;;;;;7.85;3.80;;;;;;;29.78;42.53;99271.16;10407490;28;20227;-66
2023/08/24 13:38:52;;;;;;;7.00;3.55;;;;;;;30.29;40.89;99281.59;10403172;28;20232;-66
2023/08/24 13:43:54;;;;;;;4.85;3.70;;;;;;;29.52;42.27;99307.78;10410626;28;20255;-66
2023/08/24 13:48:55;;;;;;;7.22;4.15;;;;;;;29.30;42.79;99332.72;10408729;28;20298;-67
2023/08/24 13:53:57;;;;;;;7.43;4.13;;;;;;;28.25;44.68;99436.03;10413659;28;20319;-66
2023/08/24 13:58:59;;;;;;;6.38;3.90;;;;;;;27.22;48.05;99528.84;10412530;28;20370;-65
2023/08/24 14:04:03;;;;;;;15.10;5.80;;;;;;;23.51;58.09;99514.53;10412439;28;20704;-66
2023/08/24 14:09:06;;;;;;;10.45;7.13;;;;;;;22.34;61.73;99399.81;10417308;28;20236;-66
2023/08/24 14:14:07;;;;;;;13.23;7.38;;;;;;;25.20;57.11;99343.81;10421732;28;20232;-66
2023/08/24 14:19:09;;;;;;;7.82;5.60;;;;;;;25.56;55.11;99361.69;10414163;28;20430;-66
2023/08/24 14:24:11;;;;;;;8.73;5.22;;;;;;;25.99;53.58;99375.28;10415913;28;20240;-66
2023/08/24 14:29:14;;;;;;;6.65;4.68;;;;;;;25.38;53.42;99420.78;10407152;28;20335;-66
2023/08/24 14:34:16;;;;;;;6.50;4.47;;;;;;;26.25;53.20;99336.50;10413916;28;20784;-66
2023/08/24 14:39:19;;;;;;;8.27;5.55;;;;;;;25.12;54.75;99333.47;10419235;28;20235;-66
2023/08/24 14:44:21;;;;;;;7.55;5.32;;;;;;;25.92;53.85;99287.16;10410862;28;20277;-66
2023/08/24 14:49:22;;;;;;;6.82;5.72;;;;;;;24.87;56.47;99334.59;10408738;28;20527;-66
2023/08/24 14:54:24;;;;;;;7.25;5.50;;;;;;;25.21;56.05;99306.28;10415674;28;21143;-66
2023/08/24 14:59:26;;;;;;;7.72;5.45;;;;;;;26.40;55.20;99275.91;10411586;28;20326;-66
2023/08/24 15:04:28;;;;;;;8.27;5.93;;;;;;;26.97;54.31;99294.81;10414275;28;20405;-66
2023/08/24 15:09:30;;;;;;;9.10;5.85;;;;;;;28.82;50.17;99265.56;10406511;28;20232;-67
2023/08/24 15:14:32;;;;;;;8.18;6.00;;;;;;;27.31;53.11;99308.13;10406228;28;20228;-66
2023/08/24 15:19:34;;;;;;;11.15;6.72;;;;;;;26.54;54.83;99286.91;10404680;28;20235;-67
2023/08/24 15:24:35;;;;;;;7.40;6.25;;;;;;;26.72;55.66;99271.44;10405116;28;20333;-66
2023/08/24 15:29:37;;;;;;;7.05;5.47;;;;;;;25.83;56.44;99308.97;10403541;28;20721;-66
2023/08/24 15:34:39;;;;;;;9.63;6.13;;;;;;;26.16;56.49;99290.56;10412708;28;20656;-66
2023/08/24 15:39:41;;;;;;;11.52;6.03;;;;;;;26.37;55.01;99321.22;10405594;28;20289;-66
2023/08/24 15:44:43;;;;;;;7.30;6.00;;;;;;;28.84;50.96;99271.53;10407179;28;20296;-65
2023/08/24 15:49:44;;;;;;;7.10;5.40;;;;;;;26.95;53.54;99346.47;10413576;28;20232;-66
2023/08/24 15:54:47;;;;;;;8.38;5.97;;;;;;;28.00;52.11;99301.56;10417058;28;20611;-66
2023/08/24 15:59:49;;;;;;;7.68;6.03;;;;;;;27.17;53.51;99301.00;10419509;28;20220;-66
2023/08/24 16:04:53;;;;;;;10.70;6.13;;;;;;;27.06;53.80;99293.00;10418752;28;20243;-66
2023/08/24 16:09:54;;;;;;;6.65;5.57;;;;;;;28.30;51.58;99259.84;10420523;28;20789;-66
2023/08/24 16:14:56;;;;;;;6.70;5.75;;;;;;;27.81;52.46;99265.22;10415122;28;20318;-66
2023/08/24 16:19:58;;;;;;;7.10;5.57;;;;;;;29.81;48.96;99242.13;10415763;28;20797;-66
2023/08/24 16:24:59;;;;;;;6.53;5.55;;;;;;;27.71;51.87;99314.94;10414611;28;20577;-66
2023/08/24 16:30:02;;;;;;;9.20;6.82;;;;;;;25.32;58.35;99332.44;10396174;28;20318;-66
2023/08/24 16:35:05;;;;;;;8.00;6.75;;;;;;;24.92;59.27;99398.28;10415240;28;20869;-66
2023/08/24 16:40:08;;;;;;;9.10;7.40;;;;;;;23.14;64.89;99466.59;10408991;28;20283;-65
2023/08/24 16:45:10;;;;;;;9.52;7.80;;;;;;;23.45;62.25;99473.59;10405329;28;20616;-65
2023/08/24 16:50:11;;;;;;;8.50;6.93;;;;;;;23.42;62.16;99473.34;10408419;28;20291;-66
2023/08/24 16:55:13;;;;;;;6.88;4.85;;;;;;;23.50;59.31;99458.28;10405845;28;20372;-66
2023/08/24 17:00:16;;;;;;;6.22;4.57;;;;;;;22.99;59.69;99446.38;10406922;28;20321;-66
2023/08/24 17:05:18;;;;;;;7.32;5.43;;;;;;;23.23;60.76;99347.59;10400503;28;20262;-66
2023/08/24 17:10:19;;;;;;;7.38;6.25;;;;;;;23.00;62.61;99398.13;10410756;28;20199;-66
2023/08/24 17:15:21;;;;;;;6.78;4.95;;;;;;;23.94;58.11;99539.53;10409073;28;20236;-66
2023/08/24 17:20:23;;;;;;;7.55;4.70;;;;;;;21.96;61.07;99533.53;10415872;28;20806;-66
2023/08/24 17:25:24;;;;;;;5.60;5.00;;;;;;;23.17;58.63;99439.56;10409510;28;20237;-65
2023/08/24 17:30:26;;;;;;;8.88;4.88;;;;;;;24.11;56.64;99383.41;10408748;28;20898;-65
2023/08/24 17:35:29;;;;;;;6.88;5.07;;;;;;;23.73;57.49;99416.69;10411771;28;20224;-67
2023/08/24 17:40:31;;;;;;;7.50;5.45;;;;;;;24.23;55.65;99485.00;10407410;28;20338;-66
2023/08/24 17:45:33;;;;;;;5.78;4.75;;;;;;;23.32;57.29;99547.88;10408331;28;20251;-66
2023/08/24 17:50:34;;;;;;;7.45;5.07;;;;;;;22.93;58.40;99555.81;10403152;28;20236;-65
2023/08/24 17:55:36;;;;;;;6.65;4.88;;;;;;;24.12;56.95;99488.88;10412166;28;20331;-65
2023/08/24 18:00:38;;;;;;;7.95;5.47;;;;;;;24.45;55.31;99489.25;10413968;28;20384;-65
2023/08/24 18:05:40;;;;;;;6.82;4.63;;;;;;;24.48;55.68;99522.28;10411124;28;20810;-65
2023/08/24 18:10:42;;;;;;;9.85;6.15;;;;;;;23.22;57.68;99586.91;10409420;28;20376;-66
2023/08/24 18:15:44;;;;;;;6.47;4.70;;;;;;;26.99;49.66;99493.00;10409257;28;20315;-71
2023/08/24 18:20:46;;;;;;;5.45;4.78;;;;;;;22.85;58.15;99590.72;10397824;28;20663;-65
2023/08/24 18:25:47;;;;;;;8.70;5.13;;;;;;;23.73;56.43;99522.41;10408759;28;20231;-64
2023/08/24 18:30:49;;;;;;;6.03;4.60;;;;;;;23.87;55.85;99175.66;10403377;28;20797;-66
2023/08/24 18:35:54;;;;;;;8.35;5.53;;;;;;;24.20;56.04;99350.84;10406169;28;20228;-66
2023/08/24 18:40:56;;;;;;;7.45;5.30;;;;;;;23.36;57.49;99444.41;10405281;28;20249;-66
2023/08/24 18:46:01;;;;;;;6.65;4.90;;;;;;;22.65;59.47;99335.19;10403569;28;20385;-65
2023/08/24 18:51:03;;;;;;;6.20;5.22;;;;;;;23.85;56.69;99317.19;10409294;28;20231;-66
2023/08/24 18:56:05;;;;;;;7.15;5.55;;;;;;;23.50;58.13;99352.63;10398007;28;20919;-66
2023/08/24 19:01:14;;;;;;;7.13;5.30;;;;;;;25.88;52.83;99349.16;10409430;28;20228;-66
2023/08/24 19:06:16;;;;;;;9.95;5.60;;;;;;;26.30;51.62;99366.59;10404266;28;20596;-65
2023/08/24 19:11:26;;;;;;;8.88;5.20;;;;;;;26.07;52.30;99380.09;10405072;28;20319;-66
2023/08/24 19:16:28;;;;;;;7.45;5.30;;;;;;;25.93;52.33;99346.31;10407534;28;20251;-65
2023/08/24 19:21:30;;;;;;;9.73;5.55;;;;;;;25.71;52.83;99347.75;10409840;28;20228;-65
2023/08/24 19:26:31;;;;;;;6.35;5.70;;;;;;;25.32;53.84;99345.28;10413374;28;20220;-65
2023/08/24 19:31:35;;;;;;;10.10;5.97;;;;;;;24.52;55.84;99331.09;10413970;28;20232;-66
2023/08/24 19:36:37;;;;;;;8.73;5.82;;;;;;;24.25;56.23;99299.66;10410976;28;20412;-65
2023/08/24 19:41:39;;;;;;;8.68;5.68;;;;;;;26.86;50.66;99247.56;10413767;28;20788;-65
2023/08/24 19:46:58;;;;;;;7.38;5.70;;;;;;;25.94;52.56;99310.41;10412951;28;20627;-65
2023/08/24 19:52:00;;;;;;;7.05;5.88;;;;;;;23.37;58.51;99367.69;10411506;28;20742;-66
2023/08/24 19:57:02;;;;;;;7.63;5.55;;;;;;;24.42;55.88;99296.47;10415117;28;20273;-65
2023/08/24 20:02:04;;;;;;;7.57;5.60;;;;;;;24.64;54.96;99295.97;10409683;28;20426;-65
2023/08/24 20:07:06;;;;;;;5.53;4.65;;;;;;;25.03;53.84;99237.50;10417041;28;20232;-67
2023/08/24 20:12:08;;;;;;;5.88;4.50;;;;;;;24.69;54.49;99224.81;10417345;28;20232;-65
2023/08/24 20:17:10;;;;;;;5.20;4.55;;;;;;;23.81;56.22;99286.91;10418320;28;20306;-65
2023/08/24 20:22:12;;;;;;;5.05;4.45;;;;;;;24.92;54.65;99228.63;10413383;28;20331;-65
2023/08/24 20:27:14;;;;;;;5.70;5.10;;;;;;;22.57;58.78;99270.34;10409710;28;20259;-65
2023/08/24 20:32:16;;;;;;;6.13;5.30;;;;;;;24.24;55.89;99250.75;10410313;28;20315;-65
2023/08/24 20:37:17;;;;;;;5.50;4.95;;;;;;;25.65;52.03;99231.94;10409646;28;20619;-64
2023/08/24 20:42:22;;;;;;;6.47;5.32;;;;;;;26.36;51.07;99239.25;10410632;28;20619;-66
2023/08/24 20:47:24;;;;;;;6.68;5.38;;;;;;;24.25;55.19;99296.13;10413606;28;20675;-65
2023/08/24 20:52:26;;;;;;;5.80;5.15;;;;;;;24.71;54.42;99266.38;10414720;28;20232;-64
2023/08/24 20:57:28;;;;;;;8.00;5.47;;;;;;;24.15;55.82;99256.03;10415045;28;20227;-65
2023/08/24 21:02:29;;;;;;;7.20;5.70;;;;;;;23.25;57.20;99301.72;10413215;28;20259;-64
2023/08/24 21:07:32;;;;;;;11.07;5.85;;;;;;;22.01;60.84;99293.00;10421622;28;20324;-65
2023/08/24 21:12:33;;;;;;;9.07;5.95;;;;;;;23.50;57.61;99242.59;10421073;28;20408;-65
2023/08/24 21:17:35;;;;;;;10.00;6.47;;;;;;;23.66;56.88;99248.78;10419516;28;20703;-64
2023/08/24 21:22:38;;;;;;;7.50;5.88;;;;;;;25.03;53.71;99239.44;10415763;28;20799;-65
2023/08/24 21:27:39;;;;;;;7.97;5.47;;;;;;;25.45;52.68;99243.22;10413504;28;20252;-64
2023/08/24 21:32:41;;;;;;;6.88;5.53;;;;;;;25.85;52.06;99249.19;10415378;28;20242;-64
2023/08/24 21:37:43;;;;;;;9.68;5.60;;;;;;;25.69;52.21;99267.75;10421381;28;20236;-64
2023/08/24 21:42:45;;;;;;;6.03;5.05;;;;;;;24.48;54.49;99300.00;10416874;28;20289;-65
2023/08/24 21:47:46;;;;;;;6.32;5.53;;;;;;;26.40;50.30;99242.97;10415768;28;20232;-64
2023/08/24 21:52:48;;;;;;;5.72;4.63;;;;;;;25.57;51.31;99290.13;10420379;28;20313;-64
2023/08/24 21:57:51;;;;;;;7.15;4.47;;;;;;;25.03;52.70;99299.63;10414811;28;20247;-65
2023/08/24 22:02:53;;;;;;;5.80;4.40;;;;;;;24.21;54.16;99316.91;10415722;28;20776;-64
2023/08/24 22:07:55;;;;;;;6.97;4.43;;;;;;;23.93;55.02;99311.13;10409155;28;20252;-65
2023/08/24 22:12:57;;;;;;;4.95;3.83;;;;;;;24.12;54.48;99286.63;10413091;28;20227;-64
2023/08/24 22:17:58;;;;;;;7.63;3.70;;;;;;;24.09;54.15;99303.59;10413500;28;20246;-64
2023/08/24 22:23:00;;;;;;;5.63;3.85;;;;;;;24.02;54.50;99297.66;10411613;28;20270;-64
2023/08/24 22:28:02;;;;;;;4.70;4.20;;;;;;;23.49;55.44;99301.84;10417141;28;20714;-65
2023/08/24 22:33:04;;;;;;;4.80;3.83;;;;;;;24.46;53.87;99252.97;10410889;28;20322;-64
2023/08/24 22:38:09;;;;;;;4.80;4.22;;;;;;;24.60;53.27;99264.84;10414912;28;20629;-65
2023/08/24 22:43:10;;;;;;;7.10;4.05;;;;;;;24.70;53.31;99253.81;10413490;28;20259;-65
2023/08/24 22:48:12;;;;;;;5.97;4.65;;;;;;;24.03;53.63;99318.41;10415303;28;20234;-64
2023/08/24 22:53:15;;;;;;;6.57;3.92;;;;;;;23.59;55.11;99301.78;10411708;28;20342;-64
2023/08/24 22:58:17;;;;;;;6.18;3.78;;;;;;;24.18;54.06;99263.66;10410170;28;20776;-64
2023/08/24 23:03:18;;;;;;;5.05;3.60;;;;;;;23.92;54.12;99304.00;10413896;28;20322;-64
2023/08/24 23:08:20;;;;;;;4.13;3.70;;;;;;;22.94;55.73;99353.66;10414711;28;20333;-66
2023/08/24 23:13:22;;;;;;;5.72;3.72;;;;;;;23.74;54.49;99302.81;10416548;28;20227;-64
2023/08/24 23:18:23;;;;;;;5.60;3.10;;;;;;;23.05;55.14;99324.44;10415400;28;20235;-65
2023/08/24 23:23:25;;;;;;;5.10;3.33;;;;;;;23.54;54.79;99298.28;10412356;28;20297;-65
2023/08/24 23:28:27;;;;;;;5.32;3.35;;;;;;;22.92;55.13;99333.22;10417808;28;20514;-64
2023/08/24 23:33:30;;;;;;;3.97;2.83;;;;;;;22.48;56.54;99348.28;10415220;28;20228;-65